Skip Navigation Links Skip Navigation Links

Current Weather

Richmond AAFB, Richmond, Australia

For information only: do not use for flight planning or navigation.
Latest weather
Observation time Saturday, January 25, 2020 8:30 PM AEDT
Local time Saturday, January 25, 2020 8:49 PM AEDT
Flight conditions Visual Meteorological Conditions
Winds
Wind direction East (80°)
Wind speed 3 mph
Visibility 6.2 mi.
Sky condition
Ceiling unlimited
Temperature 79°F
Dewpoint 73°F
Altimeter 29.88 in.Hg
Derived measurements
Relative humidity 84%
Heat index 79°F
Density altitude 1690 ft.
Remarks
Fully automated report.
METAR YSRI 250930Z AUTO 08003KT 9999 // NCD 26/23 Q1012 RF00.0/000.0

Settings

Location code

InnerDrive.Weather 4.0.6770.0 Release CLR 4.0.30319.42000
Copyright ©2018 Inner Drive Technology. All rights reserved. Portions Copyright ©1986-2018 David Braverman.

Find weather

Site navigation


Skip Navigation Links

Place info

Page info

PayPal - The safer, easier way to pay online!

Return home.

Copyright ©2020 Inner Drive Technology. Purveyors of fine, hand-crafted computer software. Page printed 2020-01-25T09:49:43 UTC.